Laminia — C6WU7 — position and weather

sailwx.info

Track history (hours):
 
Tides and Currents Weather Stations Pressure Air Temp Water Temp Dewpoint Dewpoint Depression Visibility Wind Speed Wind Dir Waves Ship Positions

Laminia

Last reported at 2018-Apr-09 14:29 UTC. Time now 2018-Jun-22 01:40 UTC.
Position N 39°00' E 121°41'.
Warning: this ship's position is months out of date.

Length 190 m; draft 6.3 m.

Type: Cargo ship. MMSI: 311577000.

Date/timePositionNaut miles runAvg speedWind from/ knotsBaromVisibWave heightAir tempDewpointWater temp
2018-Apr-09 14:29N 39°00' E 121°41'0 0.0
2018-Apr-08 22:11N 39°00' E 121°41'0 0.0
2018-Apr-08 21:47N 39°00' E 121°41'0 0.0
2018-Apr-08 21:29N 39°00' E 121°41'0 0.0
2018-Apr-08 02:56N 39°00' E 121°41'0 0.0
2018-Apr-08 02:17N 39°00' E 121°41'0 0.0
2018-Apr-08 00:53N 39°00' E 121°41'0 0.0
2018-Apr-08 00:17N 39°00' E 121°41'0 0.0
2018-Apr-07 16:11N 39°00' E 121°41'0 0.0
2018-Apr-07 14:14N 39°00' E 121°41'0 0.0
2018-Apr-07 08:17N 39°00' E 121°41'0 0.0
2018-Apr-07 07:57N 39°00' E 121°41'0 0.4
2018-Apr-07 07:28N 39°00' E 121°41'1 2.6
2018-Apr-07 07:00N 38°59' E 121°40'3 5.5
2018-Apr-07 06:30N 38°57' E 121°42'2 0.4
2018-Apr-07 00:44N 38°56' E 121°45'0 0.1
2018-Apr-07 00:18N 38°56' E 121°45'2 4.5
2018-Apr-06 23:53N 38°55' E 121°47'1 3.5
2018-Apr-06 23:30N 38°54' E 121°48'2 3.2
2018-Apr-06 23:01N 38°52' E 121°48'5 9.8
2018-Apr-06 22:31N 38°48' E 121°51'2 4.5
2018-Apr-06 22:00N 38°45' E 121°51'611.3
2018-Apr-06 21:31N 38°41' E 121°55'612.3
2018-Apr-06 21:01N 38°37' E 122°01'612.4
2018-Apr-06 20:31N 38°34' E 122°08'15 3.5
2018-Apr-06 16:07N 38°28' E 122°26'  
2018-Apr-03 16:36N 30°59' E 122°31'110.6
2018-Apr-03 16:30N 30°60' E 122°29'711.1
2018-Apr-03 15:54N 31°01' E 122°22'410.5
2018-Apr-03 15:30N 31°02' E 122°17'4 8.7
2018-Apr-03 15:00N 31°03' E 122°12'3 6.0
2018-Apr-03 14:30N 31°03' E 122°09'5 9.1
2018-Apr-03 14:00N 31°04' E 122°04'5 9.1
2018-Apr-03 13:29N 31°06' E 121°58'4 7.6
2018-Apr-03 13:00N 31°08' E 121°55'4 7.0
2018-Apr-03 12:30N 31°10' E 121°52'4 8.1
2018-Apr-03 11:57N 31°13' E 121°48'4 8.1
2018-Apr-03 11:29N 31°16' E 121°45'3 7.2
2018-Apr-03 11:00N 31°19' E 121°42'5 5.4
2018-Apr-03 10:08N 31°22' E 121°38'4 8.0
2018-Apr-03 09:38N 31°24' E 121°34'312.1
2018-Apr-03 09:25N 31°25' E 121°31'4 8.8
2018-Apr-03 08:59N 31°27' E 121°28'511.3
2018-Apr-03 08:30N 31°31' E 121°23'611.8
2018-Apr-03 08:00N 31°35' E 121°18'510.4
2018-Apr-03 07:30N 31°39' E 121°14'4 8.6
2018-Apr-03 07:00N 31°41' E 121°10'4 7.3
2018-Apr-03 06:30N 31°44' E 121°07'4 7.1
2018-Apr-03 05:54N 31°46' E 121°03'  
Track history (hours):
 
Tides and Currents Weather Stations Pressure Air Temp Water Temp Dewpoint Dewpoint Depression Visibility Wind Speed Wind Dir Waves Ship Positions

Laminia

Last reported at 2018-Apr-09 14:29 UTC. Time now 2018-Jun-22 01:40 UTC.
Position N 39°00' E 121°41'.
Warning: this ship's position is months out of date.

Length 190 m; draft 6.3 m.

Type: Cargo ship. MMSI: 311577000.

Date/timePositionNaut miles runAvg speedWind from/ knotsBaromVisibWave heightAir tempDewpointWater temp
2018-Apr-09 14:29N 39°00' E 121°41'0 0.0
2018-Apr-08 22:11N 39°00' E 121°41'0 0.0
2018-Apr-08 21:47N 39°00' E 121°41'0 0.0
2018-Apr-08 21:29N 39°00' E 121°41'0 0.0
2018-Apr-08 02:56N 39°00' E 121°41'0 0.0
2018-Apr-08 02:17N 39°00' E 121°41'0 0.0
2018-Apr-08 00:53N 39°00' E 121°41'0 0.0
2018-Apr-08 00:17N 39°00' E 121°41'0 0.0
2018-Apr-07 16:11N 39°00' E 121°41'0 0.0
2018-Apr-07 14:14N 39°00' E 121°41'0 0.0
2018-Apr-07 08:17N 39°00' E 121°41'0 0.0
2018-Apr-07 07:57N 39°00' E 121°41'0 0.4
2018-Apr-07 07:28N 39°00' E 121°41'1 2.6
2018-Apr-07 07:00N 38°59' E 121°40'3 5.5
2018-Apr-07 06:30N 38°57' E 121°42'2 0.4
2018-Apr-07 00:44N 38°56' E 121°45'0 0.1
2018-Apr-07 00:18N 38°56' E 121°45'2 4.5
2018-Apr-06 23:53N 38°55' E 121°47'1 3.5
2018-Apr-06 23:30N 38°54' E 121°48'2 3.2
2018-Apr-06 23:01N 38°52' E 121°48'5 9.8
2018-Apr-06 22:31N 38°48' E 121°51'2 4.5
2018-Apr-06 22:00N 38°45' E 121°51'611.3
2018-Apr-06 21:31N 38°41' E 121°55'612.3
2018-Apr-06 21:01N 38°37' E 122°01'612.4
2018-Apr-06 20:31N 38°34' E 122°08'15 3.5
2018-Apr-06 16:07N 38°28' E 122°26'  
2018-Apr-03 16:36N 30°59' E 122°31'110.6
2018-Apr-03 16:30N 30°60' E 122°29'711.1
2018-Apr-03 15:54N 31°01' E 122°22'410.5
2018-Apr-03 15:30N 31°02' E 122°17'4 8.7
2018-Apr-03 15:00N 31°03' E 122°12'3 6.0
2018-Apr-03 14:30N 31°03' E 122°09'5 9.1
2018-Apr-03 14:00N 31°04' E 122°04'5 9.1
2018-Apr-03 13:29N 31°06' E 121°58'4 7.6
2018-Apr-03 13:00N 31°08' E 121°55'4 7.0
2018-Apr-03 12:30N 31°10' E 121°52'4 8.1
2018-Apr-03 11:57N 31°13' E 121°48'4 8.1
2018-Apr-03 11:29N 31°16' E 121°45'3 7.2
2018-Apr-03 11:00N 31°19' E 121°42'5 5.4
2018-Apr-03 10:08N 31°22' E 121°38'4 8.0
2018-Apr-03 09:38N 31°24' E 121°34'312.1
2018-Apr-03 09:25N 31°25' E 121°31'4 8.8
2018-Apr-03 08:59N 31°27' E 121°28'511.3
2018-Apr-03 08:30N 31°31' E 121°23'611.8
2018-Apr-03 08:00N 31°35' E 121°18'510.4
2018-Apr-03 07:30N 31°39' E 121°14'4 8.6
2018-Apr-03 07:00N 31°41' E 121°10'4 7.3
2018-Apr-03 06:30N 31°44' E 121°07'4 7.1
2018-Apr-03 05:54N 31°46' E 121°03'  

Dump ship's entire track history